createdAt,value
2022-09-15T00:01:55.013Z,15.08
2022-09-15T00:04:21.517Z,15.10
2022-09-15T00:06:47.978Z,15.06
2022-09-15T00:09:14.390Z,15.03
2022-09-15T00:11:40.890Z,15.00
2022-09-15T00:14:08.501Z,14.97
2022-09-15T00:16:35.213Z,14.91
2022-09-15T00:19:02.740Z,14.91
2022-09-15T00:21:32.439Z,14.85
2022-09-15T00:24:00.089Z,14.87
2022-09-15T00:26:28.596Z,14.84
2022-09-15T00:28:57.038Z,14.80
2022-09-15T00:31:25.607Z,14.79
2022-09-15T00:33:54.874Z,14.56
2022-09-15T00:36:22.869Z,14.75
2022-09-15T00:38:49.445Z,14.74
2022-09-15T00:41:18.721Z,14.74
2022-09-15T00:43:53.558Z,14.74
2022-09-15T00:46:23.569Z,14.66
2022-09-15T00:48:59.327Z,14.60
2022-09-15T00:51:32.806Z,14.67
2022-09-15T00:54:01.657Z,14.58
2022-09-15T00:56:29.836Z,14.75
2022-09-15T00:59:01.948Z,14.62
2022-09-15T01:01:31.160Z,14.77
2022-09-15T01:03:58.396Z,14.88
2022-09-15T01:06:41.155Z,14.90
2022-09-15T01:09:13.977Z,14.91
2022-09-15T01:11:41.153Z,14.93
2022-09-15T01:14:07.942Z,15.00
2022-09-15T01:16:59.291Z,15.01
2022-09-15T01:19:43.714Z,15.04
2022-09-15T01:22:31.764Z,15.06
2022-09-15T01:25:09.064Z,14.85
2022-09-15T01:28:07.123Z,14.95
2022-09-15T01:30:56.535Z,15.11
2022-09-15T01:33:37.124Z,15.15
2022-09-15T01:36:37.666Z,15.15
2022-09-15T01:39:14.118Z,15.07
2022-09-15T01:41:45.207Z,15.15
2022-09-15T01:44:22.069Z,15.08
2022-09-15T01:46:54.698Z,15.09
2022-09-15T01:49:27.906Z,14.95
2022-09-15T01:51:54.860Z,15.11
2022-09-15T01:54:29.871Z,15.10
2022-09-15T01:56:57.571Z,15.19
2022-09-15T01:59:24.419Z,15.19
2022-09-15T02:02:13.732Z,15.06
2022-09-15T02:04:48.203Z,14.97
2022-09-15T02:07:20.694Z,15.21
2022-09-15T02:09:53.587Z,14.97
2022-09-15T02:12:33.453Z,14.97
2022-09-15T02:15:05.283Z,15.19
2022-09-15T02:17:36.014Z,15.19
2022-09-15T02:20:13.552Z,14.96
2022-09-15T02:22:43.164Z,14.96
2022-09-15T02:25:20.115Z,15.12
2022-09-15T02:27:51.129Z,15.08
2022-09-15T02:30:19.181Z,15.12
2022-09-15T02:33:00.139Z,15.09
2022-09-15T02:35:29.137Z,14.88
2022-09-15T02:37:56.459Z,15.05
2022-09-15T02:40:23.158Z,15.05
2022-09-15T02:42:55.000Z,15.01
2022-09-15T02:45:22.134Z,15.06
2022-09-15T02:47:48.709Z,15.08
2022-09-15T02:50:15.230Z,15.07
2022-09-15T02:52:41.695Z,15.08
2022-09-15T02:55:08.884Z,15.07
2022-09-15T02:57:35.423Z,15.04
2022-09-15T03:00:03.301Z,15.04
2022-09-15T03:02:29.857Z,15.04
2022-09-15T03:04:56.364Z,15.05
2022-09-15T03:07:22.818Z,15.07
2022-09-15T03:09:49.326Z,15.07
2022-09-15T03:12:15.772Z,15.08
2022-09-15T03:14:42.218Z,15.09
2022-09-15T03:17:08.669Z,15.09
2022-09-15T03:19:35.300Z,15.11
2022-09-15T03:22:01.730Z,15.12
2022-09-15T03:24:28.247Z,15.09
2022-09-15T03:26:54.693Z,15.13
2022-09-15T03:29:21.140Z,15.15
2022-09-15T03:31:47.721Z,15.14
2022-09-15T03:34:14.167Z,15.14
2022-09-15T03:36:40.629Z,15.16
2022-09-15T03:39:07.097Z,15.17
2022-09-15T03:41:33.589Z,15.19
2022-09-15T03:44:00.024Z,15.19
2022-09-15T03:46:26.504Z,15.17
2022-09-15T03:48:52.979Z,15.15
2022-09-15T03:51:19.444Z,15.15
2022-09-15T03:53:46.260Z,15.11
2022-09-15T03:56:25.694Z,15.13
2022-09-15T03:58:53.035Z,15.14
2022-09-15T04:01:20.568Z,14.95
2022-09-15T04:03:50.892Z,14.97
2022-09-15T04:06:19.560Z,15.12
2022-09-15T04:08:46.368Z,15.11
2022-09-15T04:11:13.440Z,15.08
2022-09-15T04:13:40.989Z,15.09
2022-09-15T04:16:19.015Z,15.03
2022-09-15T04:18:46.025Z,15.11
2022-09-15T04:21:14.902Z,15.07
2022-09-15T04:23:42.976Z,15.12
2022-09-15T04:26:24.966Z,14.90
2022-09-15T04:28:51.510Z,15.12
2022-09-15T04:31:18.597Z,15.08
2022-09-15T04:33:46.321Z,15.07
2022-09-15T04:36:18.783Z,15.03
2022-09-15T04:38:45.833Z,15.01
2022-09-15T04:41:13.573Z,15.00
2022-09-15T04:43:41.009Z,14.99
2022-09-15T04:46:07.509Z,14.98
2022-09-15T04:48:34.327Z,14.95
2022-09-15T04:51:02.822Z,14.66
2022-09-15T04:53:29.656Z,14.90
2022-09-15T04:56:14.079Z,14.87
2022-09-15T04:58:43.439Z,14.85
2022-09-15T05:01:16.169Z,14.80
2022-09-15T05:03:43.342Z,14.79
2022-09-15T05:06:12.572Z,14.80
2022-09-15T05:08:39.396Z,14.75
2022-09-15T05:11:11.438Z,14.79
2022-09-15T05:13:38.880Z,14.78
2022-09-15T05:16:14.229Z,14.58
2022-09-15T05:18:42.810Z,14.50
2022-09-15T05:21:11.131Z,14.73
2022-09-15T05:23:38.103Z,14.75
2022-09-15T05:26:11.396Z,14.47
2022-09-15T05:28:38.718Z,14.73
2022-09-15T05:31:20.221Z,14.50
2022-09-15T05:33:47.746Z,14.72
2022-09-15T05:36:14.380Z,14.70
2022-09-15T05:38:41.296Z,14.69
2022-09-15T05:41:12.648Z,14.60
2022-09-15T05:43:40.850Z,14.66
2022-09-15T05:46:07.848Z,14.65
2022-09-15T05:48:34.832Z,14.62
2022-09-15T05:51:01.409Z,14.61
2022-09-15T05:53:28.233Z,14.59
2022-09-15T05:55:59.135Z,14.60
2022-09-15T05:58:26.729Z,14.62
2022-09-15T06:00:54.506Z,14.60
2022-09-15T06:03:22.013Z,14.62
2022-09-15T06:05:48.615Z,14.62
2022-09-15T06:08:15.503Z,14.61
2022-09-15T06:10:44.422Z,14.54
2022-09-15T06:13:10.868Z,14.61
2022-09-15T06:15:37.328Z,14.59
2022-09-15T06:18:03.849Z,14.61
2022-09-15T06:20:30.330Z,14.61
2022-09-15T06:22:56.733Z,14.63
2022-09-15T06:25:23.166Z,14.64
2022-09-15T06:27:49.963Z,14.65
2022-09-15T06:30:16.710Z,14.67
2022-09-15T06:32:47.384Z,14.59
2022-09-15T06:35:14.575Z,14.70
2022-09-15T06:37:40.898Z,14.73
2022-09-15T06:40:07.632Z,14.77
2022-09-15T06:42:34.055Z,14.81
2022-09-15T06:45:00.417Z,14.88
2022-09-15T06:47:26.799Z,14.91
2022-09-15T06:49:53.189Z,14.95
2022-09-15T06:52:19.508Z,15.00
2022-09-15T06:54:45.872Z,15.07
2022-09-15T06:57:12.186Z,15.11
2022-09-15T06:59:38.536Z,15.16
2022-09-15T07:02:05.446Z,15.21
2022-09-15T07:04:33.424Z,15.25
2022-09-15T07:06:59.755Z,15.31
2022-09-15T07:09:26.127Z,15.38
2022-09-15T07:11:52.510Z,15.47
2022-09-15T07:14:18.860Z,15.55
2022-09-15T07:16:45.266Z,15.66
2022-09-15T07:19:11.616Z,15.74
2022-09-15T07:21:38.025Z,15.83
2022-09-15T07:24:07.282Z,15.91
2022-09-15T07:26:34.227Z,15.98
2022-09-15T07:29:01.753Z,16.06
2022-09-15T07:31:29.681Z,16.17
2022-09-15T07:33:56.083Z,16.21
2022-09-15T07:36:22.758Z,16.25
2022-09-15T07:38:49.565Z,16.31
2022-09-15T07:41:17.416Z,16.37
2022-09-15T07:43:47.668Z,16.44
2022-09-15T07:46:14.611Z,16.55
2022-09-15T07:48:43.431Z,16.63
2022-09-15T07:51:09.808Z,16.72
2022-09-15T07:53:36.140Z,16.82
2022-09-15T07:56:02.709Z,16.93
2022-09-15T07:58:29.093Z,17.02
2022-09-15T08:01:00.733Z,17.07
2022-09-15T08:03:27.169Z,17.17
2022-09-15T08:05:57.517Z,17.23
2022-09-15T08:08:23.887Z,17.32
2022-09-15T08:10:50.205Z,17.41
2022-09-15T08:13:16.560Z,17.49
2022-09-15T08:15:42.949Z,17.55
2022-09-15T08:18:09.348Z,17.58
2022-09-15T08:20:38.289Z,17.64
2022-09-15T08:23:04.630Z,17.72
2022-09-15T08:25:30.955Z,17.79
2022-09-15T08:27:57.275Z,17.87
2022-09-15T08:30:23.626Z,17.96
2022-09-15T08:32:50.286Z,18.03
2022-09-15T08:35:16.787Z,18.11
2022-09-15T08:37:43.142Z,18.17
2022-09-15T08:40:31.467Z,18.23
2022-09-15T08:42:59.848Z,18.30
2022-09-15T08:45:28.218Z,18.37
2022-09-15T08:47:57.373Z,18.42
2022-09-15T08:50:39.906Z,18.43
2022-09-15T08:53:07.861Z,18.45
2022-09-15T08:55:40.154Z,18.45
2022-09-15T08:58:11.620Z,18.48
2022-09-15T09:00:39.717Z,18.53
2022-09-15T09:03:12.091Z,18.57
2022-09-15T09:05:38.471Z,18.59
2022-09-15T09:08:19.780Z,18.61
2022-09-15T09:10:51.459Z,18.65
2022-09-15T09:13:20.929Z,18.68
2022-09-15T09:15:50.276Z,18.68
2022-09-15T09:18:22.661Z,18.69
2022-09-15T09:21:04.041Z,18.70
2022-09-15T09:23:32.629Z,18.74
2022-09-15T09:25:59.933Z,18.75
2022-09-15T09:28:26.236Z,18.73
2022-09-15T09:30:52.825Z,18.69
2022-09-15T09:33:26.328Z,18.73
2022-09-15T09:35:52.718Z,18.78
2022-09-15T09:38:28.467Z,18.82
2022-09-15T09:40:59.867Z,18.91
2022-09-15T09:43:29.315Z,18.98
2022-09-15T09:45:55.783Z,19.05
2022-09-15T09:48:23.946Z,19.14
2022-09-15T09:50:50.728Z,19.21
2022-09-15T09:53:27.722Z,19.24
2022-09-15T09:55:55.317Z,19.23
2022-09-15T09:58:23.240Z,19.23
2022-09-15T10:00:50.199Z,19.24
2022-09-15T10:03:16.505Z,19.26
2022-09-15T10:05:43.637Z,19.28
2022-09-15T10:08:17.253Z,19.32
2022-09-15T10:10:50.963Z,19.38
2022-09-15T10:13:17.476Z,19.44
2022-09-15T10:15:44.134Z,19.52
2022-09-15T10:18:25.358Z,19.58
2022-09-15T10:20:51.757Z,19.64
2022-09-15T10:23:18.071Z,19.68
2022-09-15T10:25:58.628Z,19.77
2022-09-15T10:28:26.549Z,19.85
2022-09-15T10:31:05.075Z,19.95
2022-09-15T10:33:31.414Z,20.05
2022-09-15T10:36:11.416Z,20.15
2022-09-15T10:38:37.740Z,20.28
2022-09-15T10:41:25.813Z,20.38
2022-09-15T10:44:09.609Z,20.47
2022-09-15T10:46:54.901Z,20.55
2022-09-15T10:49:27.304Z,20.63
2022-09-15T10:52:04.953Z,20.72
2022-09-15T10:54:40.243Z,20.84
2022-09-15T10:57:06.567Z,20.97
2022-09-15T10:59:45.262Z,21.04
2022-09-15T11:02:38.000Z,21.09
2022-09-15T11:05:13.533Z,21.09
2022-09-15T11:07:45.174Z,21.08
2022-09-15T11:10:14.344Z,21.10
2022-09-15T11:12:43.686Z,21.12
2022-09-15T11:15:11.351Z,21.11
2022-09-15T11:17:49.572Z,21.06
2022-09-15T11:20:15.941Z,21.06
2022-09-15T11:22:52.847Z,21.07
2022-09-15T11:25:21.482Z,21.09
2022-09-15T11:27:56.631Z,21.13
2022-09-15T11:30:22.976Z,21.12
2022-09-15T11:32:57.902Z,21.08
2022-09-15T11:35:27.680Z,20.99
2022-09-15T11:37:55.584Z,20.90
2022-09-15T11:40:30.135Z,20.84
2022-09-15T11:43:25.804Z,20.80
2022-09-15T11:45:54.838Z,20.75
2022-09-15T11:48:23.868Z,20.77
2022-09-15T11:50:52.859Z,20.76
2022-09-15T11:53:19.436Z,20.76
2022-09-15T11:55:55.007Z,20.81
2022-09-15T11:58:26.190Z,20.86
2022-09-15T12:00:55.586Z,20.90
2022-09-15T12:03:35.289Z,20.94
2022-09-15T12:06:21.919Z,20.97
2022-09-15T12:09:01.894Z,20.98
2022-09-15T12:11:30.799Z,20.94
2022-09-15T12:13:57.881Z,20.91
2022-09-15T12:16:25.069Z,20.86
2022-09-15T12:18:56.495Z,20.83
2022-09-15T12:21:22.843Z,20.80
2022-09-15T12:24:01.618Z,20.80
2022-09-15T12:26:28.437Z,20.79
2022-09-15T12:29:20.775Z,20.80
2022-09-15T12:31:47.317Z,20.84
2022-09-15T12:34:25.930Z,20.88
2022-09-15T12:36:53.377Z,20.92
2022-09-15T12:39:30.180Z,20.94
2022-09-15T12:42:16.851Z,20.93
2022-09-15T12:44:54.180Z,20.92
2022-09-15T12:47:23.673Z,20.92
2022-09-15T12:49:51.108Z,20.96
2022-09-15T12:52:20.013Z,21.00
2022-09-15T12:54:50.671Z,21.06
2022-09-15T12:57:23.178Z,21.12
2022-09-15T12:59:49.517Z,21.19
2022-09-15T13:02:34.796Z,21.24
2022-09-15T13:05:01.270Z,21.29
2022-09-15T13:07:31.894Z,21.33
2022-09-15T13:10:07.547Z,21.39
2022-09-15T13:12:36.416Z,21.43
2022-09-15T13:15:06.288Z,21.46
2022-09-15T13:17:33.275Z,21.48
2022-09-15T13:20:07.183Z,21.50
2022-09-15T13:22:39.939Z,21.54
2022-09-15T13:25:09.372Z,21.58
2022-09-15T13:27:37.927Z,21.61
2022-09-15T13:30:22.769Z,21.63
2022-09-15T13:32:52.121Z,21.67
2022-09-15T13:35:37.435Z,21.67
2022-09-15T13:38:23.733Z,21.66
2022-09-15T13:41:10.346Z,21.64
2022-09-15T13:43:40.791Z,21.62
2022-09-15T13:46:20.071Z,21.61
2022-09-15T13:48:46.530Z,21.62
2022-09-15T13:51:23.716Z,21.61
2022-09-15T13:53:53.186Z,21.60
2022-09-15T13:56:26.364Z,21.57
2022-09-15T13:58:56.324Z,21.55
2022-09-15T14:01:26.341Z,21.54
2022-09-15T14:04:01.945Z,21.58
2022-09-15T14:06:30.447Z,21.61
2022-09-15T14:09:00.121Z,21.67
2022-09-15T14:11:29.388Z,21.68
2022-09-15T14:13:57.233Z,21.64
2022-09-15T14:16:28.120Z,21.58
2022-09-15T14:18:55.653Z,21.52
2022-09-15T14:21:23.255Z,21.52
2022-09-15T14:23:50.551Z,21.57
2022-09-15T14:26:18.555Z,21.67
2022-09-15T14:28:52.250Z,21.75
2022-09-15T14:31:26.850Z,21.75
2022-09-15T14:33:53.415Z,21.82
2022-09-15T14:36:25.473Z,21.91
2022-09-15T14:39:04.062Z,21.95
2022-09-15T14:41:33.639Z,21.95
2022-09-15T14:43:59.991Z,21.89
2022-09-15T14:46:35.274Z,21.83
2022-09-15T14:49:08.584Z,21.78
2022-09-15T14:51:35.281Z,21.73
2022-09-15T14:54:03.089Z,21.72
2022-09-15T14:56:36.825Z,21.79
2022-09-15T14:59:08.012Z,21.87
2022-09-15T15:01:36.297Z,21.92
2022-09-15T15:04:17.747Z,21.92
2022-09-15T15:07:02.546Z,21.90
2022-09-15T15:09:33.954Z,21.87
2022-09-15T15:12:06.042Z,21.84
2022-09-15T15:14:32.653Z,21.80
2022-09-15T15:17:00.591Z,21.81
2022-09-15T15:19:53.456Z,21.80
2022-09-15T15:22:20.749Z,21.79
2022-09-15T15:24:48.367Z,21.77
2022-09-15T15:27:32.861Z,21.72
2022-09-15T15:30:19.458Z,21.68
2022-09-15T15:32:45.925Z,21.63
2022-09-15T15:35:19.240Z,21.58
2022-09-15T15:37:46.370Z,21.56
2022-09-15T15:40:16.736Z,21.53
2022-09-15T15:42:57.710Z,21.51
2022-09-15T15:45:27.540Z,21.49
2022-09-15T15:47:53.916Z,21.46
2022-09-15T15:50:22.113Z,21.38
2022-09-15T15:52:49.430Z,21.26
2022-09-15T15:55:17.346Z,21.15
2022-09-15T15:57:44.603Z,21.06
2022-09-15T16:00:20.892Z,20.95
2022-09-15T16:02:48.222Z,20.87
2022-09-15T16:05:14.648Z,20.85
2022-09-15T16:07:42.370Z,20.80
2022-09-15T16:10:14.198Z,20.76
2022-09-15T16:12:40.547Z,20.72
2022-09-15T16:15:11.115Z,20.65
2022-09-15T16:17:37.491Z,20.62
2022-09-15T16:20:03.990Z,20.57
2022-09-15T16:22:30.359Z,20.49
2022-09-15T16:24:56.689Z,20.44
2022-09-15T16:27:23.058Z,20.41
2022-09-15T16:29:49.366Z,20.38
2022-09-15T16:32:19.950Z,20.34
2022-09-15T16:34:46.366Z,20.31
2022-09-15T16:37:12.677Z,20.30
2022-09-15T16:39:39.055Z,20.27
2022-09-15T16:42:05.486Z,20.23
2022-09-15T16:44:31.837Z,20.19
2022-09-15T16:46:58.222Z,20.13
2022-09-15T16:49:24.618Z,20.11
2022-09-15T16:51:50.964Z,20.06
2022-09-15T16:54:18.488Z,20.08
2022-09-15T16:56:45.251Z,20.30
2022-09-15T16:59:11.705Z,20.39
2022-09-15T17:01:38.424Z,20.32
2022-09-15T17:04:11.293Z,20.24
2022-09-15T17:06:37.675Z,20.15
2022-09-15T17:09:04.062Z,20.06
2022-09-15T17:11:30.489Z,19.96
2022-09-15T17:13:56.821Z,19.87
2022-09-15T17:16:23.240Z,19.78
2022-09-15T17:18:49.605Z,19.69
2022-09-15T17:21:16.923Z,19.62
2022-09-15T17:23:45.366Z,19.56
2022-09-15T17:26:17.141Z,19.49
2022-09-15T17:28:43.530Z,19.42
2022-09-15T17:31:17.755Z,19.37
2022-09-15T17:33:44.841Z,19.31
2022-09-15T17:36:11.346Z,19.24
2022-09-15T17:38:37.714Z,19.17
2022-09-15T17:41:04.087Z,19.12
2022-09-15T17:43:30.984Z,19.05
2022-09-15T17:45:58.004Z,18.98
2022-09-15T17:48:24.818Z,18.91
2022-09-15T17:50:51.517Z,18.86
2022-09-15T17:53:18.819Z,18.82
2022-09-15T17:55:45.175Z,18.75
2022-09-15T17:58:11.510Z,18.69
2022-09-15T18:00:38.831Z,18.63
2022-09-15T18:03:10.862Z,18.55
2022-09-15T18:05:37.461Z,18.51
2022-09-15T18:08:04.684Z,18.45
2022-09-15T18:10:32.906Z,18.40
2022-09-15T18:12:59.620Z,18.35
2022-09-15T18:15:27.026Z,18.31
2022-09-15T18:17:55.094Z,18.27
2022-09-15T18:20:22.750Z,18.22
2022-09-15T18:22:49.505Z,18.17
2022-09-15T18:25:17.810Z,18.11
2022-09-15T18:27:44.379Z,18.04
2022-09-15T18:30:11.344Z,17.99
2022-09-15T18:32:37.676Z,17.96
2022-09-15T18:35:04.109Z,17.92
2022-09-15T18:37:30.504Z,17.88
2022-09-15T18:39:56.942Z,17.84
2022-09-15T18:42:23.615Z,17.80
2022-09-15T18:44:51.602Z,17.76
2022-09-15T18:47:17.907Z,17.72
2022-09-15T18:49:44.269Z,17.71
2022-09-15T18:52:11.285Z,17.67
2022-09-15T18:54:37.644Z,17.65
2022-09-15T18:57:03.983Z,17.64
2022-09-15T18:59:30.346Z,17.62
2022-09-15T19:01:56.753Z,17.57
2022-09-15T19:04:23.256Z,17.56
2022-09-15T19:06:49.618Z,17.54
2022-09-15T19:09:15.982Z,17.52
2022-09-15T19:11:42.310Z,17.52
2022-09-15T19:14:08.695Z,17.51
2022-09-15T19:16:56.606Z,17.49
2022-09-15T19:19:21.578Z,17.44
2022-09-15T19:21:47.987Z,17.44
2022-09-15T19:24:14.335Z,17.42
2022-09-15T19:26:40.696Z,17.40
2022-09-15T19:29:07.049Z,17.39
2022-09-15T19:31:33.412Z,17.37
2022-09-15T19:33:59.779Z,17.36
2022-09-15T19:36:28.715Z,17.36
2022-09-15T19:38:55.924Z,17.33
2022-09-15T19:41:22.282Z,17.30
2022-09-15T19:43:48.599Z,17.29
2022-09-15T19:46:16.362Z,17.27
2022-09-15T19:48:46.535Z,17.23
2022-09-15T19:51:16.928Z,17.22
2022-09-15T19:53:43.729Z,17.21
2022-09-15T19:56:13.815Z,17.19
2022-09-15T19:58:40.300Z,17.17
2022-09-15T20:01:06.753Z,17.16
2022-09-15T20:03:33.154Z,17.14
2022-09-15T20:05:59.471Z,17.10
2022-09-15T20:08:25.862Z,17.08
2022-09-15T20:10:52.409Z,17.04
2022-09-15T20:13:18.771Z,17.01
2022-09-15T20:15:54.873Z,16.96
2022-09-15T20:18:21.233Z,16.91
2022-09-15T20:20:47.546Z,16.86
2022-09-15T20:23:13.936Z,16.81
2022-09-15T20:25:40.321Z,16.77
2022-09-15T20:28:06.697Z,16.73
2022-09-15T20:30:33.136Z,16.69
2022-09-15T20:32:59.548Z,16.63
2022-09-15T20:35:25.896Z,16.59
2022-09-15T20:37:52.285Z,16.56
2022-09-15T20:40:18.668Z,16.51
2022-09-15T20:42:45.052Z,16.47
2022-09-15T20:45:11.408Z,16.42
2022-09-15T20:47:37.789Z,16.38
2022-09-15T20:50:04.303Z,16.36
2022-09-15T20:52:33.643Z,16.32
2022-09-15T20:55:04.063Z,16.27
2022-09-15T20:57:30.385Z,16.25
2022-09-15T20:59:56.782Z,16.22
2022-09-15T21:02:23.145Z,16.18
2022-09-15T21:04:49.524Z,16.16
2022-09-15T21:07:15.860Z,16.13
2022-09-15T21:09:42.249Z,16.12
2022-09-15T21:12:08.584Z,16.09
2022-09-15T21:14:34.966Z,16.08
2022-09-15T21:17:01.303Z,16.08
2022-09-15T21:19:27.685Z,16.07
2022-09-15T21:21:54.043Z,16.04
2022-09-15T21:24:20.391Z,16.03
2022-09-15T21:26:46.733Z,15.99
2022-09-15T21:29:13.174Z,15.97
2022-09-15T21:31:39.533Z,15.95
2022-09-15T21:34:05.873Z,15.93
2022-09-15T21:36:32.198Z,15.89
2022-09-15T21:38:59.300Z,15.85
2022-09-15T21:41:26.665Z,15.80
2022-09-15T21:43:53.933Z,15.74
2022-09-15T21:46:22.243Z,15.70
2022-09-15T21:48:49.056Z,15.65
2022-09-15T21:51:18.758Z,15.61
2022-09-15T21:53:50.619Z,15.55
2022-09-15T21:56:16.925Z,15.51
2022-09-15T21:58:43.558Z,15.46
2022-09-15T22:01:19.205Z,15.41
2022-09-15T22:03:49.711Z,15.37
2022-09-15T22:06:16.241Z,15.34
2022-09-15T22:08:42.633Z,15.33
2022-09-15T22:11:09.881Z,15.31
2022-09-15T22:13:37.727Z,15.31
2022-09-15T22:16:05.303Z,15.30
2022-09-15T22:18:31.880Z,15.30
2022-09-15T22:21:12.162Z,15.29
2022-09-15T22:23:39.037Z,15.31
2022-09-15T22:26:06.792Z,15.31
2022-09-15T22:28:33.206Z,15.32
2022-09-15T22:31:04.222Z,15.31
2022-09-15T22:33:30.680Z,15.32
2022-09-15T22:35:57.054Z,15.29
2022-09-15T22:38:24.157Z,15.27
2022-09-15T22:40:50.870Z,15.25
2022-09-15T22:43:17.296Z,15.24
2022-09-15T22:45:43.807Z,15.22
2022-09-15T22:48:10.258Z,15.20
2022-09-15T22:50:36.629Z,15.19
2022-09-15T22:53:02.996Z,15.16
2022-09-15T22:55:32.428Z,15.14
2022-09-15T22:57:58.865Z,15.12
2022-09-15T23:00:25.224Z,15.12
2022-09-15T23:02:51.625Z,15.11
2022-09-15T23:05:18.009Z,15.09
2022-09-15T23:07:44.379Z,15.10
2022-09-15T23:10:10.698Z,15.09
2022-09-15T23:12:37.059Z,15.07
2022-09-15T23:15:03.467Z,15.06
2022-09-15T23:17:33.576Z,15.04
2022-09-15T23:20:00.330Z,15.03
2022-09-15T23:22:26.685Z,15.04
2022-09-15T23:24:53.063Z,15.04
2022-09-15T23:27:19.403Z,15.03
2022-09-15T23:29:45.759Z,15.01
2022-09-15T23:32:12.111Z,14.98
2022-09-15T23:34:38.703Z,14.97
2022-09-15T23:37:05.055Z,14.96
2022-09-15T23:39:31.399Z,14.95
2022-09-15T23:41:57.758Z,14.93
2022-09-15T23:44:24.167Z,14.90
2022-09-15T23:46:50.522Z,14.87
2022-09-15T23:49:18.839Z,14.85
2022-09-15T23:51:45.357Z,14.85
2022-09-15T23:54:11.747Z,14.84
2022-09-15T23:56:38.123Z,14.82
2022-09-15T23:59:04.474Z,14.78
